createdAt,value
2023-01-22T00:01:12.333Z,100674.69
2023-01-22T00:03:41.048Z,100667.66
2023-01-22T00:06:10.368Z,100665.88
2023-01-22T00:08:37.784Z,100657.03
2023-01-22T00:11:05.104Z,100663.25
2023-01-22T00:13:32.535Z,100666.69
2023-01-22T00:16:00.167Z,100657.03
2023-01-22T00:18:27.349Z,100657.03
2023-01-22T00:20:55.182Z,100654.44
2023-01-22T00:23:23.364Z,100651.81
2023-01-22T00:25:59.999Z,100650.97
2023-01-22T00:28:27.054Z,100653.59
2023-01-22T00:31:04.078Z,100656.22
2023-01-22T00:33:32.492Z,100641.31
2023-01-22T00:36:08.548Z,100646.56
2023-01-22T00:38:36.852Z,100651.81
2023-01-22T00:41:06.991Z,100640.38
2023-01-22T00:43:35.544Z,100636.91
2023-01-22T00:46:02.510Z,100643.94
2023-01-22T00:48:29.836Z,100650.84
2023-01-22T00:50:56.967Z,100642.97
2023-01-22T00:53:24.097Z,100643.81
2023-01-22T00:55:59.823Z,100635.13
2023-01-22T00:58:28.783Z,100638.56
2023-01-22T01:00:56.246Z,100634.16
2023-01-22T01:03:32.086Z,100639.41
2023-01-22T01:06:07.933Z,100638.50
2023-01-22T01:08:42.087Z,100632.41
2023-01-22T01:11:14.890Z,100641.97
2023-01-22T01:13:43.344Z,100637.66
2023-01-22T01:16:29.723Z,100623.69
2023-01-22T01:19:09.988Z,100636.72
2023-01-22T01:21:37.177Z,100631.47
2023-01-22T01:24:04.833Z,100628.00
2023-01-22T01:26:33.394Z,100626.22
2023-01-22T01:29:00.351Z,100627.91
2023-01-22T01:31:27.417Z,100631.47
2023-01-22T01:33:57.666Z,100628.72
2023-01-22T01:36:46.268Z,100633.03
2023-01-22T01:39:12.624Z,100631.25
2023-01-22T01:41:39.552Z,100636.50
2023-01-22T01:44:10.317Z,100637.31
2023-01-22T01:46:57.491Z,100627.69
2023-01-22T01:49:48.730Z,100630.22
2023-01-22T01:52:18.321Z,100631.97
2023-01-22T01:54:52.547Z,100626.66
2023-01-22T01:57:33.429Z,100637.13
2023-01-22T02:00:02.603Z,100626.66
2023-01-22T02:02:41.428Z,100625.69
2023-01-22T02:05:10.337Z,100629.16
2023-01-22T02:07:37.557Z,100636.09
2023-01-22T02:10:06.264Z,100623.06
2023-01-22T02:12:36.285Z,100629.16
2023-01-22T02:15:05.311Z,100630.00
2023-01-22T02:17:32.894Z,100630.00
2023-01-22T02:19:59.905Z,100627.38
2023-01-22T02:22:33.398Z,100619.38
2023-01-22T02:25:01.481Z,100617.59
2023-01-22T02:27:28.415Z,100622.84
2023-01-22T02:29:55.505Z,100624.53
2023-01-22T02:32:22.531Z,100618.38
2023-01-22T02:34:49.578Z,100617.53
2023-01-22T02:37:17.349Z,100616.56
2023-01-22T02:39:44.325Z,100606.09
2023-01-22T02:42:12.247Z,100622.66
2023-01-22T02:44:41.009Z,100605.25
2023-01-22T02:47:07.941Z,100611.22
2023-01-22T02:49:34.886Z,100603.34
2023-01-22T02:52:01.897Z,100613.00
2023-01-22T02:54:30.254Z,100612.16
2023-01-22T02:56:57.206Z,100613.84
2023-01-22T02:59:24.499Z,100613.84
2023-01-22T03:01:51.770Z,100619.09
2023-01-22T03:04:18.737Z,100616.47
2023-01-22T03:06:47.048Z,100612.06
2023-01-22T03:09:17.531Z,100619.09
2023-01-22T03:11:46.913Z,100610.25
2023-01-22T03:14:43.171Z,100613.84
2023-01-22T03:17:29.401Z,100612.06
2023-01-22T03:20:17.701Z,100608.59
2023-01-22T03:22:44.814Z,100598.09
2023-01-22T03:25:11.755Z,100598.09
2023-01-22T03:27:58.709Z,100605.13
2023-01-22T03:30:26.134Z,100602.50
2023-01-22T03:32:53.037Z,100605.13
2023-01-22T03:35:20.096Z,100599.06
2023-01-22T03:38:02.134Z,100600.72
2023-01-22T03:40:29.079Z,100593.69
2023-01-22T03:42:56.526Z,100597.16
2023-01-22T03:45:23.531Z,100598.09
2023-01-22T03:47:53.139Z,100594.53
2023-01-22T03:50:26.319Z,100594.53
2023-01-22T03:52:55.356Z,100593.56
2023-01-22T03:55:22.279Z,100596.19
2023-01-22T03:57:49.376Z,100601.44
2023-01-22T04:00:18.274Z,100602.28
2023-01-22T04:02:45.549Z,100607.53
2023-01-22T04:05:20.380Z,100608.38
2023-01-22T04:07:50.331Z,100603.97
2023-01-22T04:10:19.880Z,100602.19
2023-01-22T04:12:47.773Z,100603.88
2023-01-22T04:15:17.469Z,100606.50
2023-01-22T04:17:45.714Z,100602.09
2023-01-22T04:20:32.881Z,100613.41
2023-01-22T04:23:21.911Z,100607.22
2023-01-22T04:25:52.055Z,100612.47
2023-01-22T04:28:20.289Z,100602.81
2023-01-22T04:30:54.722Z,100615.09
2023-01-22T04:33:37.648Z,100610.69
2023-01-22T04:36:10.568Z,100619.41
2023-01-22T04:38:37.865Z,100622.75
2023-01-22T04:41:04.890Z,100619.41
2023-01-22T04:43:32.991Z,100622.03
2023-01-22T04:45:59.948Z,100620.13
2023-01-22T04:48:30.896Z,100622.75
2023-01-22T04:50:57.874Z,100620.13
2023-01-22T04:53:28.283Z,100620.97
2023-01-22T04:55:55.649Z,100620.13
2023-01-22T04:58:22.597Z,100628.75
2023-01-22T05:00:51.053Z,100623.50
2023-01-22T05:03:18.094Z,100620.88
2023-01-22T05:05:45.036Z,100626.00
2023-01-22T05:08:12.436Z,100626.00
2023-01-22T05:10:39.415Z,100622.44
2023-01-22T05:13:09.000Z,100627.69
2023-01-22T05:15:37.230Z,100630.19
2023-01-22T05:18:08.644Z,100623.28
2023-01-22T05:20:37.527Z,100624.94
2023-01-22T05:23:04.697Z,100632.81
2023-01-22T05:25:32.120Z,100624.88
2023-01-22T05:27:59.615Z,100628.31
2023-01-22T05:30:49.942Z,100634.53
2023-01-22T05:33:35.517Z,100631.91
2023-01-22T05:36:03.936Z,100637.16
2023-01-22T05:38:31.953Z,100636.19
2023-01-22T05:40:58.988Z,100644.91
2023-01-22T05:43:28.466Z,100642.28
2023-01-22T05:46:04.566Z,100639.66
2023-01-22T05:48:46.682Z,100643.13
2023-01-22T05:51:18.406Z,100638.81
2023-01-22T05:53:45.987Z,100651.00
2023-01-22T05:56:14.066Z,100653.63
2023-01-22T05:58:41.006Z,100648.38
2023-01-22T06:01:07.991Z,100652.66
2023-01-22T06:03:40.897Z,100653.50
2023-01-22T06:06:11.587Z,100657.91
2023-01-22T06:08:39.327Z,100658.75
2023-01-22T06:11:15.725Z,100664.00
2023-01-22T06:13:46.196Z,100670.09
2023-01-22T06:16:21.083Z,100663.91
2023-01-22T06:19:10.385Z,100670.09
2023-01-22T06:21:43.563Z,100668.31
2023-01-22T06:24:11.264Z,100670.09
2023-01-22T06:26:38.373Z,100669.16
2023-01-22T06:29:07.772Z,100663.91
2023-01-22T06:31:35.694Z,100665.69
2023-01-22T06:34:06.709Z,100658.66
2023-01-22T06:36:33.732Z,100661.28
2023-01-22T06:39:00.930Z,100664.84
2023-01-22T06:41:37.673Z,100662.09
2023-01-22T06:44:07.671Z,100664.84
2023-01-22T06:46:34.712Z,100663.06
2023-01-22T06:49:10.639Z,100674.38
2023-01-22T06:51:39.841Z,100667.47
2023-01-22T06:54:07.059Z,100677.00
2023-01-22T06:56:34.067Z,100681.44
2023-01-22T06:59:03.426Z,100674.38
2023-01-22T07:01:30.665Z,100670.94
2023-01-22T07:03:57.593Z,100678.81
2023-01-22T07:06:24.552Z,100687.50
2023-01-22T07:08:52.042Z,100684.16
2023-01-22T07:11:19.001Z,100695.38
2023-01-22T07:13:45.905Z,100695.50
2023-01-22T07:16:13.082Z,100703.38
2023-01-22T07:18:40.047Z,100704.09
2023-01-22T07:21:07.088Z,100707.66
2023-01-22T07:23:34.035Z,100703.25
2023-01-22T07:26:00.967Z,100711.97
2023-01-22T07:28:27.983Z,100725.94
2023-01-22T07:30:56.451Z,100713.75
2023-01-22T07:33:23.534Z,100720.69
2023-01-22T07:35:57.089Z,100716.31
2023-01-22T07:38:27.288Z,100733.72
2023-01-22T07:40:55.611Z,100730.25
2023-01-22T07:43:22.544Z,100729.31
2023-01-22T07:45:49.470Z,100738.88
2023-01-22T07:48:16.535Z,100737.09
2023-01-22T07:50:43.523Z,100739.59
2023-01-22T07:53:11.714Z,100741.28
2023-01-22T07:55:40.142Z,100753.47
2023-01-22T07:58:07.904Z,100753.25
2023-01-22T08:00:35.817Z,100758.41
2023-01-22T08:03:10.363Z,100760.91
2023-01-22T08:05:39.937Z,100757.97
2023-01-22T08:08:18.851Z,100763.13
2023-01-22T08:10:45.828Z,100762.94
2023-01-22T08:13:12.896Z,100766.28
2023-01-22T08:15:41.294Z,100763.47
2023-01-22T08:18:10.300Z,100769.44
2023-01-22T08:20:37.370Z,100766.59
2023-01-22T08:23:04.312Z,100767.34
2023-01-22T08:25:31.221Z,100775.13
2023-01-22T08:28:03.400Z,100777.53
2023-01-22T08:30:31.098Z,100779.13
2023-01-22T08:32:58.082Z,100781.53
2023-01-22T08:35:25.271Z,100778.69
2023-01-22T08:37:52.187Z,100786.47
2023-01-22T08:40:19.426Z,100788.03
2023-01-22T08:42:52.013Z,100786.25
2023-01-22T08:45:19.133Z,100789.63
2023-01-22T08:47:46.123Z,100792.13
2023-01-22T08:50:13.641Z,100787.72
2023-01-22T08:52:40.640Z,100792.88
2023-01-22T08:55:09.893Z,100795.38
2023-01-22T08:57:37.526Z,100792.75
2023-01-22T09:00:06.239Z,100794.34
2023-01-22T09:02:33.093Z,100793.41
2023-01-22T09:05:00.088Z,100793.28
2023-01-22T09:07:26.999Z,100795.81
2023-01-22T09:09:53.938Z,100793.94
2023-01-22T09:12:20.899Z,100799.19
2023-01-22T09:14:48.219Z,100800.75
2023-01-22T09:17:15.142Z,100802.53
2023-01-22T09:19:42.039Z,100810.41
2023-01-22T09:22:08.948Z,100802.41
2023-01-22T09:24:35.853Z,100802.41
2023-01-22T09:27:02.825Z,100808.50
2023-01-22T09:29:29.881Z,100811.97
2023-01-22T09:31:57.078Z,100818.06
2023-01-22T09:34:24.090Z,100815.44
2023-01-22T09:36:51.083Z,100818.84
2023-01-22T09:39:18.469Z,100828.38
2023-01-22T09:41:55.834Z,100829.13
2023-01-22T09:44:44.516Z,100822.91
2023-01-22T09:47:26.411Z,100832.47
2023-01-22T09:50:22.016Z,100833.22
2023-01-22T09:52:52.651Z,100837.53
2023-01-22T09:55:23.880Z,100840.03
2023-01-22T09:57:54.992Z,100844.34
2023-01-22T10:00:31.347Z,100834.59
2023-01-22T10:03:04.818Z,100834.59
2023-01-22T10:05:41.152Z,100842.38
2023-01-22T10:08:26.066Z,100839.50
2023-01-22T10:10:53.483Z,100840.28
2023-01-22T10:13:37.133Z,100840.88
2023-01-22T10:16:05.657Z,100837.28
2023-01-22T10:19:00.517Z,100843.06
2023-01-22T10:21:32.004Z,100836.03
2023-01-22T10:23:59.675Z,100840.97
2023-01-22T10:26:42.880Z,100837.41
2023-01-22T10:29:29.384Z,100837.28
2023-01-22T10:32:01.928Z,100843.25
2023-01-22T10:34:36.649Z,100835.38
2023-01-22T10:37:17.771Z,100837.09
2023-01-22T10:39:47.949Z,100837.91
2023-01-22T10:42:27.618Z,100842.09
2023-01-22T10:45:14.655Z,100842.94
2023-01-22T10:47:41.643Z,100849.88
2023-01-22T10:50:16.797Z,100848.84
2023-01-22T10:52:51.706Z,100842.63
2023-01-22T10:55:29.824Z,100848.63
2023-01-22T10:58:14.027Z,100847.56
2023-01-22T11:00:51.413Z,100852.72
2023-01-22T11:03:23.533Z,100851.53
2023-01-22T11:06:06.186Z,100852.28
2023-01-22T11:09:12.164Z,100841.41
2023-01-22T11:11:48.349Z,100838.69
2023-01-22T11:14:32.675Z,100845.41
2023-01-22T11:17:16.344Z,100843.53
2023-01-22T11:20:00.493Z,100841.63
2023-01-22T11:22:43.455Z,100841.50
2023-01-22T11:25:11.529Z,100839.69
2023-01-22T11:28:02.387Z,100835.16
2023-01-22T11:31:14.564Z,100839.50
2023-01-22T11:33:48.267Z,100840.34
2023-01-22T11:36:45.596Z,100841.19
2023-01-22T11:39:58.029Z,100837.59
2023-01-22T11:42:37.082Z,100840.34
2023-01-22T11:45:47.413Z,100835.16
2023-01-22T11:48:46.363Z,100836.13
2023-01-22T11:51:39.858Z,100838.03
2023-01-22T11:54:33.829Z,100828.56
2023-01-22T11:57:37.403Z,100828.78
2023-01-22T12:00:51.445Z,100826.28
2023-01-22T12:04:04.288Z,100823.75
2023-01-22T12:06:58.723Z,100816.81
2023-01-22T12:10:31.075Z,100815.94
2023-01-22T12:13:43.123Z,100815.94
2023-01-22T12:16:44.491Z,100810.81
2023-01-22T12:20:03.590Z,100812.59
2023-01-22T12:22:50.414Z,100810.91
2023-01-22T12:25:34.426Z,100816.19
2023-01-22T12:28:13.841Z,100822.41
2023-01-22T12:31:26.186Z,100821.56
2023-01-22T12:33:53.217Z,100818.09
2023-01-22T12:36:24.515Z,100823.34
2023-01-22T12:39:06.793Z,100825.03
2023-01-22T12:42:02.036Z,100824.91
2023-01-22T12:44:55.151Z,100818.56
2023-01-22T12:47:48.687Z,100819.31
2023-01-22T12:50:23.325Z,100824.34
2023-01-22T12:53:06.190Z,100820.56
2023-01-22T12:55:38.112Z,100830.00
2023-01-22T12:58:17.752Z,100828.97
2023-01-22T13:00:44.803Z,100827.91
2023-01-22T13:03:32.040Z,100827.78
2023-01-22T13:06:02.403Z,100821.56
2023-01-22T13:08:41.573Z,100825.91
2023-01-22T13:11:13.223Z,100834.63
2023-01-22T13:13:56.744Z,100827.56
2023-01-22T13:16:37.375Z,100831.88
2023-01-22T13:19:27.523Z,100823.88
2023-01-22T13:22:00.170Z,100833.25
2023-01-22T13:24:27.152Z,100831.09
2023-01-22T13:27:01.619Z,100832.44
2023-01-22T13:29:39.213Z,100839.03
2023-01-22T13:32:22.742Z,100847.56
2023-01-22T13:34:49.747Z,100843.16
2023-01-22T13:37:28.131Z,100847.34
2023-01-22T13:39:55.060Z,100843.88
2023-01-22T13:42:24.757Z,100844.81
2023-01-22T13:44:52.290Z,100848.41
2023-01-22T13:47:33.087Z,100850.22
2023-01-22T13:50:01.295Z,100857.34
2023-01-22T13:52:29.257Z,100850.53
2023-01-22T13:55:15.801Z,100856.75
2023-01-22T13:57:52.438Z,100856.88
2023-01-22T14:00:34.083Z,100867.41
2023-01-22T14:03:01.888Z,100861.50
2023-01-22T14:05:34.032Z,100856.38
2023-01-22T14:08:11.016Z,100857.31
2023-01-22T14:10:41.226Z,100857.53
2023-01-22T14:13:12.119Z,100848.91
2023-01-22T14:15:40.939Z,100852.50
2023-01-22T14:18:17.203Z,100849.94
2023-01-22T14:20:47.172Z,100852.69
2023-01-22T14:23:15.434Z,100855.44
2023-01-22T14:25:53.036Z,100854.63
2023-01-22T14:28:22.529Z,100858.19
2023-01-22T14:30:50.466Z,100863.47
2023-01-22T14:33:33.178Z,100863.47
2023-01-22T14:36:01.101Z,100869.69
2023-01-22T14:38:28.645Z,100867.06
2023-01-22T14:40:56.615Z,100873.28
2023-01-22T14:43:23.631Z,100869.78
2023-01-22T14:45:51.588Z,100870.72
2023-01-22T14:48:20.443Z,100870.84
2023-01-22T14:50:48.899Z,100871.81
2023-01-22T14:53:17.092Z,100867.50
2023-01-22T14:55:45.453Z,100864.09
2023-01-22T14:58:12.530Z,100869.38
2023-01-22T15:00:39.906Z,100871.28
2023-01-22T15:03:06.990Z,100874.88
2023-01-22T15:05:35.759Z,100884.56
2023-01-22T15:08:03.142Z,100888.13
2023-01-22T15:10:30.074Z,100888.25
2023-01-22T15:12:57.095Z,100891.09
2023-01-22T15:15:26.828Z,100892.03
2023-01-22T15:17:57.043Z,100896.56
2023-01-22T15:20:24.668Z,100901.91
2023-01-22T15:22:51.926Z,100902.03
2023-01-22T15:25:18.939Z,100905.63
2023-01-22T15:27:46.336Z,100913.63
2023-01-22T15:30:14.268Z,100910.25
2023-01-22T15:32:41.248Z,100906.88
2023-01-22T15:35:08.859Z,100909.63
2023-01-22T15:37:36.123Z,100915.84
2023-01-22T15:40:03.793Z,100912.47
2023-01-22T15:42:30.759Z,100918.69
2023-01-22T15:44:57.690Z,100917.13
2023-01-22T15:47:24.704Z,100924.16
2023-01-22T15:49:51.621Z,100924.28
2023-01-22T15:52:18.944Z,100915.56
2023-01-22T15:54:46.274Z,100924.34
2023-01-22T15:57:14.134Z,100921.00
2023-01-22T15:59:41.962Z,100915.03
2023-01-22T16:02:12.320Z,100918.50
2023-01-22T16:04:39.361Z,100922.16
2023-01-22T16:07:06.311Z,100924.78
2023-01-22T16:09:34.556Z,100926.69
2023-01-22T16:12:01.541Z,100925.00
2023-01-22T16:14:29.131Z,100928.59
2023-01-22T16:16:56.145Z,100931.22
2023-01-22T16:19:23.128Z,100928.69
2023-01-22T16:21:52.213Z,100936.59
2023-01-22T16:24:19.249Z,100937.53
2023-01-22T16:26:46.186Z,100931.53
2023-01-22T16:29:13.230Z,100931.53
2023-01-22T16:31:40.173Z,100933.31
2023-01-22T16:34:17.747Z,100942.16
2023-01-22T16:36:45.242Z,100937.00
2023-01-22T16:39:23.536Z,100944.13
2023-01-22T16:41:52.168Z,100945.91
2023-01-22T16:44:26.251Z,100946.03
2023-01-22T16:46:57.452Z,100947.72
2023-01-22T16:49:27.573Z,100955.72
2023-01-22T16:51:58.074Z,100959.28
2023-01-22T16:54:31.571Z,100957.63
2023-01-22T16:57:09.736Z,100962.88
2023-01-22T16:59:37.586Z,100966.44
2023-01-22T17:02:07.991Z,100969.09
2023-01-22T17:04:34.936Z,100965.63
2023-01-22T17:07:01.824Z,100966.44
2023-01-22T17:09:32.261Z,100976.13
2023-01-22T17:12:05.672Z,100976.13
2023-01-22T17:14:36.996Z,100980.50
2023-01-22T17:17:07.006Z,100980.50
2023-01-22T17:19:34.400Z,100983.13
2023-01-22T17:22:01.828Z,100981.38
2023-01-22T17:24:30.714Z,100990.19
2023-01-22T17:26:58.191Z,100988.41
2023-01-22T17:29:25.951Z,100990.09
2023-01-22T17:31:53.458Z,100998.91
2023-01-22T17:34:20.525Z,100998.06
2023-01-22T17:36:50.469Z,100999.88
2023-01-22T17:39:19.820Z,100999.88
2023-01-22T17:41:47.021Z,100992.94
2023-01-22T17:44:14.013Z,100989.56
2023-01-22T17:46:41.241Z,100999.97
2023-01-22T17:49:11.038Z,100999.13
2023-01-22T17:51:38.100Z,101001.75
2023-01-22T17:54:05.968Z,100996.63
2023-01-22T17:56:36.439Z,101008.91
2023-01-22T17:59:06.677Z,101008.91
2023-01-22T18:01:36.568Z,101008.06
2023-01-22T18:04:09.623Z,101010.78
2023-01-22T18:06:38.433Z,101006.47
2023-01-22T18:09:06.723Z,101012.69
2023-01-22T18:11:35.048Z,101015.31
2023-01-22T18:14:06.190Z,101019.72
2023-01-22T18:16:35.453Z,101019.00
2023-01-22T18:19:05.293Z,101028.66
2023-01-22T18:21:32.328Z,101018.22
2023-01-22T18:24:01.725Z,101025.28
2023-01-22T18:26:29.179Z,101023.59
2023-01-22T18:28:58.435Z,101029.81
2023-01-22T18:31:28.026Z,101027.28
2023-01-22T18:34:01.247Z,101030.75
2023-01-22T18:36:33.952Z,101036.84
2023-01-22T18:39:07.140Z,101036.00
2023-01-22T18:41:34.559Z,101035.16
2023-01-22T18:44:02.626Z,101039.59
2023-01-22T18:46:36.731Z,101040.53
2023-01-22T18:49:16.186Z,101038.81
2023-01-22T18:51:45.084Z,101043.16
2023-01-22T18:54:12.588Z,101046.69
2023-01-22T18:56:40.315Z,101037.13
2023-01-22T18:59:07.942Z,101039.78
2023-01-22T19:01:38.510Z,101041.66
2023-01-22T19:04:08.671Z,101043.34
2023-01-22T19:06:38.551Z,101044.28
2023-01-22T19:09:14.113Z,101053.97
2023-01-22T19:11:46.985Z,101050.50
2023-01-22T19:14:17.498Z,101043.56
2023-01-22T19:16:48.337Z,101048.81
2023-01-22T19:19:17.242Z,101054.06
2023-01-22T19:21:47.130Z,101052.34
2023-01-22T19:24:17.433Z,101052.34
2023-01-22T19:26:46.681Z,101051.50
2023-01-22T19:29:17.580Z,101050.69
2023-01-22T19:31:48.357Z,101061.19
2023-01-22T19:34:23.037Z,101065.59
2023-01-22T19:36:56.599Z,101068.34
2023-01-22T19:39:28.143Z,101073.59
2023-01-22T19:41:56.557Z,101077.91
2023-01-22T19:44:23.528Z,101076.22
2023-01-22T19:46:50.493Z,101081.47
2023-01-22T19:49:17.606Z,101084.09
2023-01-22T19:51:44.574Z,101086.72
2023-01-22T19:54:11.951Z,101089.34
2023-01-22T19:56:41.339Z,101097.25
2023-01-22T19:59:14.451Z,101094.63
2023-01-22T20:01:42.812Z,101094.63
2023-01-22T20:04:18.047Z,101092.94
2023-01-22T20:06:45.780Z,101099.03
2023-01-22T20:09:13.296Z,101090.31
2023-01-22T20:11:40.623Z,101098.19
2023-01-22T20:14:07.525Z,101092.94
2023-01-22T20:16:34.549Z,101099.88
2023-01-22T20:19:01.602Z,101100.72
2023-01-22T20:21:30.026Z,101095.56
2023-01-22T20:23:57.099Z,101094.63
2023-01-22T20:26:24.189Z,101091.16
2023-01-22T20:28:51.712Z,101097.25
2023-01-22T20:31:23.367Z,101101.66
2023-01-22T20:33:56.919Z,101099.03
2023-01-22T20:36:27.653Z,101096.41
2023-01-22T20:38:55.209Z,101099.88
2023-01-22T20:41:27.177Z,101092.94
2023-01-22T20:43:54.592Z,101091.97
2023-01-22T20:46:27.147Z,101090.31
2023-01-22T20:48:58.549Z,101101.66
2023-01-22T20:51:28.478Z,101111.31
2023-01-22T20:53:57.619Z,101114.78
2023-01-22T20:56:30.267Z,101113.94
2023-01-22T20:59:07.886Z,101109.53
2023-01-22T21:01:35.491Z,101114.06
2023-01-22T21:04:03.224Z,101108.69
2023-01-22T21:06:34.067Z,101105.22
2023-01-22T21:09:01.600Z,101106.06
2023-01-22T21:11:30.952Z,101108.69
2023-01-22T21:14:00.465Z,101109.53
2023-01-22T21:16:34.224Z,101097.25
2023-01-22T21:19:16.617Z,101101.53
2023-01-22T21:21:45.201Z,101100.72
2023-01-22T21:24:12.881Z,101106.81
2023-01-22T21:26:40.073Z,101103.34
2023-01-22T21:29:13.829Z,101105.97
2023-01-22T21:31:41.076Z,101096.28
2023-01-22T21:34:10.395Z,101101.53
2023-01-22T21:36:41.343Z,101101.53
2023-01-22T21:39:16.819Z,101107.66
2023-01-22T21:41:44.600Z,101107.66
2023-01-22T21:44:33.230Z,101113.75
2023-01-22T21:47:01.029Z,101115.53
2023-01-22T21:49:29.012Z,101115.53
2023-01-22T21:52:02.229Z,101106.81
2023-01-22T21:54:35.240Z,101110.38
2023-01-22T21:57:03.348Z,101109.44
2023-01-22T21:59:30.366Z,101108.69
2023-01-22T22:01:57.670Z,101106.06
2023-01-22T22:04:27.452Z,101115.75
2023-01-22T22:06:55.013Z,101117.53
2023-01-22T22:09:25.649Z,101120.16
2023-01-22T22:11:59.434Z,101121.94
2023-01-22T22:14:26.778Z,101112.34
2023-01-22T22:16:54.586Z,101115.84
2023-01-22T22:19:23.608Z,101126.34
2023-01-22T22:21:50.996Z,101121.09
2023-01-22T22:24:19.370Z,101121.94
2023-01-22T22:26:46.783Z,101127.19
2023-01-22T22:29:13.707Z,101127.19
2023-01-22T22:31:40.710Z,101120.16
2023-01-22T22:34:07.659Z,101122.78
2023-01-22T22:36:34.869Z,101131.41
2023-01-22T22:39:02.683Z,101127.94
2023-01-22T22:41:32.980Z,101124.47
2023-01-22T22:44:00.218Z,101130.56
2023-01-22T22:46:30.389Z,101134.97
2023-01-22T22:49:00.151Z,101129.63
2023-01-22T22:51:31.914Z,101131.41
2023-01-22T22:54:06.302Z,101137.50
2023-01-22T22:56:33.683Z,101137.50
2023-01-22T22:59:01.233Z,101134.88
2023-01-22T23:01:31.120Z,101140.97
2023-01-22T23:03:58.226Z,101143.59
2023-01-22T23:06:29.985Z,101135.72
2023-01-22T23:09:12.815Z,101133.09
2023-01-22T23:11:40.361Z,101141.81
2023-01-22T23:14:07.874Z,101143.59
2023-01-22T23:16:43.272Z,101145.38
2023-01-22T23:19:18.422Z,101144.44
2023-01-22T23:21:51.332Z,101137.50
2023-01-22T23:24:18.314Z,101145.28
2023-01-22T23:26:46.433Z,101154.09
2023-01-22T23:29:20.527Z,101150.53
2023-01-22T23:31:48.148Z,101145.28
2023-01-22T23:34:19.147Z,101147.91
2023-01-22T23:36:47.804Z,101149.69
2023-01-22T23:39:18.652Z,101146.22
2023-01-22T23:41:45.859Z,101147.06
2023-01-22T23:44:12.905Z,101152.41
2023-01-22T23:46:40.738Z,101149.69
2023-01-22T23:49:07.692Z,101149.78
2023-01-22T23:51:34.611Z,101155.03
2023-01-22T23:54:01.706Z,101155.03
2023-01-22T23:56:31.626Z,101155.16
2023-01-22T23:58:59.910Z,101155.16
